Main page
METAR-TAF:

METAR-TAF

Airports :

Aviano Air Base

Aviano, Italy

latitude: 46-02N, longitude: 012-36E, elevation: 128 m

Current weather observation

The report was made 25 hours and 0 minutes ago, at 18:55 UTC
Wind 3 kt from the South
Temperature 12°C
Humidity 62%
Pressure 1016 hPa
Visibility 10 km or more
Broken clouds at a height of 7000 ft

METAR: LIPA 271855Z 18003KT 9999 BKN070 12/05 Q1016 RMK BKN VIS MIN 9999 WIND THR05 /////KT WIND THR23 /////KT A3003 BLU

Time: 20:55 (19:55 UTC)

Forecast

The report was made 26 hours and 55 minutes ago, at 17:00 UTC
Forecast valid from 27 at 18 UTC to 28 at 03 UTC
Wind 5 kt from the North/Northeast
Visibility 10 km or more
Scattered clouds at a height of 5000 ft
Broken clouds at a height of 6000 ft

TAF: LIPA 271700Z 2718/2803 02005KT 9999 SCT050 BKN060

Weather observations and forecasts of more than 4000 airports (METAR and TAF reports).

The available stations are represented by yellow and red dots on the map.

Hover mouse over dot to see the name of the station.

Then click to see weather observations and forecasts.

To change the map : click on the green buttons with a black cross to zoom in, on the green button with a dash to zoom out, or on the green arrows for adjacent maps.


METAR-TAF: